Osijek Airport


Codes: LDOS/OSI
Name: Osijek Airport
City: Osijek
Country: Croatia
Elevation: 290 ft.
Wikipedia:

Photos at Osijek Airport


   Photos courtesy of SpottingLog. You can add your own sightings and photos by signing up for a free trial today.



No photos found.

Weather at Osijek Airport


Time (UTC)DescriptionTempratureWindCloud coverageVisibilityPressureHumidity
21-Feb-2024 03:00Scattered Clouds7°C7 mph, NW31%10000m1025hPa82%
21-Feb-2024 06:00Broken Clouds6°C7 mph, W65%10000m1026hPa79%
21-Feb-2024 09:00Overcast Clouds9°C9 mph, NW100%10000m1027hPa64%
21-Feb-2024 12:00Overcast Clouds12°C7 mph, NW87%10000m1025hPa53%
21-Feb-2024 15:00Broken Clouds11°C2 mph, SE84%10000m1024hPa53%
21-Feb-2024 18:00Broken Clouds8°C7 mph, SE59%10000m1023hPa74%
21-Feb-2024 21:00Few Clouds7°C9 mph, SE23%10000m1022hPa77%
22-Feb-2024 00:00Broken Clouds6°C9 mph, SE56%10000m1021hPa77%
22-Feb-2024 03:00Overcast Clouds5°C7 mph, SE100%10000m1018hPa79%
22-Feb-2024 06:00Overcast Clouds5°C7 mph, S100%10000m1017hPa76%
22-Feb-2024 09:00Overcast Clouds10°C9 mph, S100%10000m1016hPa56%
22-Feb-2024 12:00Overcast Clouds13°C11 mph, SW100%10000m1014hPa45%
22-Feb-2024 15:00Overcast Clouds14°C7 mph, S100%10000m1012hPa46%
22-Feb-2024 18:00Overcast Clouds11°C9 mph, S100%10000m1011hPa55%
22-Feb-2024 21:00Overcast Clouds10°C9 mph, S100%10000m1010hPa59%
23-Feb-2024 00:00Overcast Clouds9°C9 mph, S96%10000m1010hPa65%
23-Feb-2024 03:00Overcast Clouds10°C9 mph, S100%10000m1008hPa69%
23-Feb-2024 06:00Overcast Clouds10°C9 mph, S100%10000m1008hPa68%
23-Feb-2024 09:00Overcast Clouds13°C9 mph, SW100%10000m1009hPa59%
23-Feb-2024 12:00Overcast Clouds13°C9 mph, S100%10000m1008hPa58%
23-Feb-2024 15:00Overcast Clouds15°C11 mph, S100%10000m1006hPa46%
23-Feb-2024 18:00Overcast Clouds13°C13 mph, S99%10000m1006hPa52%
23-Feb-2024 21:00Overcast Clouds13°C16 mph, S100%10000m1006hPa51%
24-Feb-2024 00:00Overcast Clouds13°C13 mph, S100%10000m1005hPa55%
24-Feb-2024 03:00Overcast Clouds13°C16 mph, S100%10000m1006hPa55%
24-Feb-2024 06:00Overcast Clouds13°C13 mph, S100%10000m1007hPa57%
24-Feb-2024 09:00Overcast Clouds14°C7 mph, W100%10000m1009hPa61%
24-Feb-2024 12:00Overcast Clouds14°C2 mph, NE100%10000m1009hPa61%
24-Feb-2024 15:00Light Rain12°C7 mph, N100%10000m1008hPa77%
24-Feb-2024 18:00Light Rain9°C11 mph, NW100%10000m1010hPa86%
24-Feb-2024 21:00Overcast Clouds8°C7 mph, N100%10000m1010hPa87%
25-Feb-2024 00:00Overcast Clouds8°C2 mph, E100%10000m1010hPa87%
25-Feb-2024 03:00Overcast Clouds8°C2 mph, S100%10000m1009hPa92%
25-Feb-2024 06:00Overcast Clouds8°C4 mph, W100%10000m1008hPa91%
25-Feb-2024 09:00Overcast Clouds11°C4 mph, SE100%10000m1007hPa73%
25-Feb-2024 12:00Overcast Clouds13°C7 mph, SW100%10000m1005hPa67%
25-Feb-2024 15:00Overcast Clouds10°C11 mph, NW100%10000m1005hPa88%
25-Feb-2024 18:00Light Rain8°C9 mph, NW100%10000m1006hPa93%
25-Feb-2024 21:00Light Rain8°C9 mph, NW100%10000m1007hPa93%
26-Feb-2024 00:00Light Rain8°C9 mph, W100%10000m1008hPa93%